Terminal Aerodrome Forecast
Issued by NWS

Home | Current Version | Previous Version | Text Only | Print | Product List | Glossary On
Versions: 1 2 3 4 5 6 7 8 9 10 11 12 13 14 15 16 17
000
FTAK31 PAJN 260100 AAA
TAFAYA
TAF AMD
PAYA 260136Z 2602/2624 22008KT P6SM -SHRASN BKN040 OVC060
      TEMPO 2602/2604 23010G20KT 5SM -SHSN SCT035 OVC050
     FM260400 VRB05KT P6SM VCSH SCT030 OVC050
     FM260900 11005KT P6SM VCSH SCT030 BKN050
     FM261200 07080KT P6SM VCSH BKN050
     FM261800 VRB05KT P6SM BKN070
      AMD LTD TO CLD VIS AND WIND 2601/2610=

USA.gov is the U.S. government's official web portal to all federal, state and local government web resources and services.